Frosinone Military Airport LIRH

Flugplatz Daten

Name: Frosinone Military Airport

Ident: LIRH

Lat: 41,64640045

Long: 13,29979992

Platzhöhe: 0 ft

IataCode: QFR

City: Frosinone

Metar

2021/08/05 12:55
LIRH 051255Z 29010KT 9999 SCT040 30/15 Q1010 RMK BKN SCT090 MON LIB NC VIS MIN 9999 WIND THR16 30011KT BLU

Taf

2021/02/08 09:24
TAF TAF LIRH 080800Z 0809/0821 VRB03KT 8000 BKN030
TEMPO 0811/0815 26013KT 4000 RA FEW015 BKN025
Gewünschte Webcam nicht vorhanden? Dann fügen Sie eine hinzu. Sie wird dann so schnell wie möglich freigeschaltet
Url: Title: